Time;durP1;ratioP1;P1;durP2;ratioP2;P2;SDS_P1;SDS_P2;PMS_P1;PMS_P2;Temp;Humidity;BMP_temperature;BMP_pressure;BME280_temperature;BME280_humidity;BME280_pressure;Samples;Min_cycle;Max_cycle;Signal;HPM_P1;HPM_P2
2023/05/15 00:00:46;;;;;;;8.30;5.25;;;;;;;20.81;49.13;101478.59;5008712;28;20033;-71
2023/05/15 00:03:12;;;;;;;7.40;6.00;;;;;;;20.80;49.29;101483.03;5011564;28;20034;-72
2023/05/15 00:05:38;;;;;;;8.45;5.90;;;;;;;20.77;49.06;101471.88;5011693;28;20101;-71
2023/05/15 00:08:04;;;;;;;6.20;5.60;;;;;;;20.79;49.08;101469.94;5015414;28;20041;-71
2023/05/15 00:10:29;;;;;;;7.55;5.60;;;;;;;20.77;49.08;101464.75;5012110;28;20212;-73
2023/05/15 00:12:54;;;;;;;7.30;5.88;;;;;;;20.77;48.90;101467.41;5003499;28;20906;-69
2023/05/15 00:15:19;;;;;;;7.38;5.68;;;;;;;20.78;49.01;101463.81;5009410;28;20053;-72
2023/05/15 00:17:45;;;;;;;8.43;5.80;;;;;;;20.76;48.95;101460.44;5013522;28;20033;-72
2023/05/15 00:20:11;;;;;;;6.63;5.50;;;;;;;20.78;48.87;101466.44;5004402;28;20472;-71
2023/05/15 00:22:36;;;;;;;7.55;5.93;;;;;;;20.77;48.72;101472.72;5021022;28;20266;-71
2023/05/15 00:25:02;;;;;;;9.13;6.15;;;;;;;20.75;48.83;101456.09;5009169;28;20402;-75
2023/05/15 00:27:27;;;;;;;7.82;5.97;;;;;;;20.78;48.82;101474.41;5017390;28;20061;-72
2023/05/15 00:29:52;;;;;;;9.98;6.30;;;;;;;20.75;48.85;101460.56;5009962;28;20552;-73
2023/05/15 00:32:17;;;;;;;8.90;5.93;;;;;;;20.75;48.78;101447.34;5005862;28;20529;-71
2023/05/15 00:34:43;;;;;;;7.97;6.00;;;;;;;20.74;48.73;101457.06;5016977;28;20033;-71
2023/05/15 00:37:08;;;;;;;7.97;6.50;;;;;;;20.74;48.57;101443.00;5016738;28;20038;-72
2023/05/15 00:39:35;;;;;;;8.60;6.38;;;;;;;20.75;48.48;101444.69;5009685;28;20034;-71
2023/05/15 00:42:01;;;;;;;9.18;6.28;;;;;;;20.72;48.64;101453.72;5015662;28;20029;-71
2023/05/15 00:44:29;;;;;;;8.00;6.43;;;;;;;20.71;48.37;101446.75;5012990;28;20489;-71
2023/05/15 00:46:56;;;;;;;7.85;6.15;;;;;;;20.72;48.18;101443.13;5011990;28;20075;-72
2023/05/15 00:49:22;;;;;;;7.88;5.53;;;;;;;20.75;48.37;101449.97;5010691;28;20583;-72
2023/05/15 00:51:48;;;;;;;9.73;6.70;;;;;;;20.74;48.31;101443.00;5014928;28;20037;-72
2023/05/15 00:54:14;;;;;;;8.40;6.95;;;;;;;20.71;48.42;101444.09;5011870;28;20519;-73
2023/05/15 00:56:42;;;;;;;8.63;6.70;;;;;;;20.73;48.21;101446.59;5005716;28;20033;-71
2023/05/15 00:59:08;;;;;;;8.68;6.03;;;;;;;20.70;48.20;101447.72;5007743;28;20444;-71
2023/05/15 01:01:34;;;;;;;9.43;6.78;;;;;;;20.71;48.27;101441.47;5016337;28;20469;-71
2023/05/15 01:04:00;;;;;;;7.80;6.75;;;;;;;20.69;48.16;101438.06;5011563;28;20116;-73
2023/05/15 01:06:26;;;;;;;7.22;5.97;;;;;;;20.68;48.06;101435.56;5015013;28;20029;-71
2023/05/15 01:08:55;;;;;;;8.73;6.10;;;;;;;20.67;48.06;101439.19;5012688;28;20034;-70
2023/05/15 01:11:24;;;;;;;8.88;6.22;;;;;;;20.67;48.08;101432.06;5018561;28;20084;-74
2023/05/15 01:13:49;;;;;;;9.18;6.18;;;;;;;20.69;47.95;101432.78;5017579;28;20045;-71
2023/05/15 01:16:14;;;;;;;7.68;6.20;;;;;;;20.68;48.05;101432.91;5014210;28;20099;-73
2023/05/15 01:18:40;;;;;;;8.70;6.50;;;;;;;20.67;47.84;101423.28;5001711;28;20036;-71
2023/05/15 01:21:24;;;;;;;8.10;6.15;;;;;;;20.68;47.91;101439.06;5015717;28;20347;-72
2023/05/15 01:24:19;;;;;;;8.18;6.40;;;;;;;20.64;47.89;101427.84;5004298;28;20813;-70
2023/05/15 01:27:15;;;;;;;7.35;6.00;;;;;;;20.67;47.75;101433.88;5015948;28;20033;-71
2023/05/15 01:29:59;;;;;;;8.07;6.78;;;;;;;20.67;47.67;101420.66;5006942;28;20080;-71
2023/05/15 01:32:38;;;;;;;8.13;6.75;;;;;;;20.64;47.69;101425.22;5004224;28;20061;-71
2023/05/15 01:35:12;;;;;;;8.57;6.55;;;;;;;20.63;47.69;101422.66;5021471;28;20034;-70
2023/05/15 01:37:44;;;;;;;9.80;7.13;;;;;;;20.62;47.74;101411.22;5016822;28;20048;-70
2023/05/15 01:40:13;;;;;;;8.18;6.80;;;;;;;20.64;47.79;101424.38;5009135;28;20026;-69
2023/05/15 01:42:46;;;;;;;7.97;6.75;;;;;;;20.61;47.71;101420.13;5006911;28;20041;-70
2023/05/15 01:45:13;;;;;;;7.93;6.32;;;;;;;20.61;47.79;101416.66;5008218;28;20650;-71
2023/05/15 01:47:42;;;;;;;8.20;6.72;;;;;;;20.59;47.61;101411.47;5005261;28;20046;-70
2023/05/15 01:50:12;;;;;;;7.65;6.35;;;;;;;20.59;47.64;101413.31;5016293;28;20072;-71
2023/05/15 01:52:41;;;;;;;10.68;7.05;;;;;;;20.61;47.49;101411.34;5021562;28;20489;-70
2023/05/15 01:55:08;;;;;;;9.43;6.68;;;;;;;20.60;47.67;101404.38;5015723;28;20152;-70
2023/05/15 01:57:35;;;;;;;8.05;6.35;;;;;;;20.60;47.37;101410.53;5024251;28;20165;-72
2023/05/15 02:00:01;;;;;;;10.30;6.53;;;;;;;20.57;47.54;101408.13;5024251;28;20041;-75
2023/05/15 02:02:28;;;;;;;8.25;6.20;;;;;;;20.57;47.46;101401.97;5023078;28;20033;-72
2023/05/15 02:04:54;;;;;;;7.68;6.60;;;;;;;20.56;47.48;101402.97;5018684;28;20029;-71
2023/05/15 02:07:20;;;;;;;9.35;6.97;;;;;;;20.58;47.27;101401.84;5005261;28;20572;-72
2023/05/15 02:09:46;;;;;;;7.60;6.28;;;;;;;20.56;47.56;101398.50;5016639;28;20029;-69
2023/05/15 02:12:12;;;;;;;7.53;6.45;;;;;;;20.55;47.48;101399.44;5024356;28;20219;-71
2023/05/15 02:14:39;;;;;;;8.27;6.80;;;;;;;20.57;47.40;101401.97;5013978;28;20144;-70
2023/05/15 02:17:05;;;;;;;8.93;7.13;;;;;;;20.54;47.39;101400.44;5016957;28;20030;-71
2023/05/15 02:19:30;;;;;;;7.53;6.53;;;;;;;20.56;47.36;101411.75;5009542;28;20038;-72
2023/05/15 02:21:56;;;;;;;7.95;6.28;;;;;;;20.56;47.27;101408.25;5006076;28;20030;-72
2023/05/15 02:24:21;;;;;;;8.55;6.45;;;;;;;20.56;47.30;101405.59;5004753;28;20030;-72
2023/05/15 02:27:14;;;;;;;8.23;6.87;;;;;;;20.54;47.33;101408.38;5028242;28;20059;-71
2023/05/15 02:30:05;;;;;;;10.15;7.20;;;;;;;20.54;47.33;101404.91;5016541;28;20286;-72
2023/05/15 02:32:45;;;;;;;8.95;7.18;;;;;;;20.54;47.37;101404.91;5022110;28;20069;-72
2023/05/15 02:35:25;;;;;;;8.70;7.40;;;;;;;20.51;47.32;101407.81;5013798;28;20044;-72
2023/05/15 02:37:54;;;;;;;10.25;7.43;;;;;;;20.54;47.22;101420.78;5018584;28;20040;-71
2023/05/15 02:40:22;;;;;;;8.95;7.25;;;;;;;20.50;47.10;101420.19;5021744;28;20064;-70
2023/05/15 02:42:48;;;;;;;9.30;7.25;;;;;;;20.50;47.18;101416.69;5024324;28;20374;-73
2023/05/15 02:45:13;;;;;;;9.70;8.02;;;;;;;20.51;47.17;101419.22;5012741;28;20040;-72
2023/05/15 02:47:39;;;;;;;10.30;6.93;;;;;;;20.50;47.17;101412.25;5022150;28;20033;-71
2023/05/15 02:50:06;;;;;;;9.55;7.45;;;;;;;20.49;46.97;101423.81;5015793;28;20041;-72
2023/05/15 02:52:33;;;;;;;9.35;7.13;;;;;;;20.50;47.24;101422.00;5014598;28;20079;-75
2023/05/15 02:54:58;;;;;;;11.25;8.32;;;;;;;20.48;47.19;101414.19;5019912;28;20381;-71
2023/05/15 02:57:23;;;;;;;8.27;7.07;;;;;;;20.49;46.89;101415.88;5020611;28;20475;-71
2023/05/15 02:59:49;;;;;;;9.00;6.93;;;;;;;20.50;47.21;101414.88;5013969;28;20029;-71
2023/05/15 03:02:14;;;;;;;10.95;7.72;;;;;;;20.49;46.90;101407.94;5018263;28;20263;-73
2023/05/15 03:04:40;;;;;;;10.38;7.85;;;;;;;20.49;46.97;101407.94;5018403;28;20029;-71
2023/05/15 03:07:05;;;;;;;10.45;8.15;;;;;;;20.47;47.10;101404.53;5011248;28;20037;-74
2023/05/15 03:09:30;;;;;;;12.57;8.23;;;;;;;20.47;46.87;101399.25;5021975;28;20177;-73
2023/05/15 03:11:55;;;;;;;10.40;7.97;;;;;;;20.46;46.91;101405.53;5011367;28;20267;-70
2023/05/15 03:14:20;;;;;;;11.13;8.33;;;;;;;20.46;47.41;101409.00;5014387;28;20679;-73
2023/05/15 03:16:46;;;;;;;10.17;7.97;;;;;;;20.47;46.86;101401.91;5021851;28;20353;-71
2023/05/15 03:19:11;;;;;;;9.95;8.07;;;;;;;20.46;46.92;101400.25;5022108;28;20274;-72
2023/05/15 03:21:36;;;;;;;11.35;8.43;;;;;;;20.46;47.17;101403.72;5012832;28;20044;-72
2023/05/15 03:24:02;;;;;;;9.98;7.95;;;;;;;20.46;46.92;101401.06;5018097;28;20034;-75
2023/05/15 03:26:27;;;;;;;9.57;8.35;;;;;;;20.46;46.88;101403.72;5020943;28;20037;-71
2023/05/15 03:28:52;;;;;;;13.43;9.27;;;;;;;20.46;46.97;101394.94;5022150;28;20489;-70
2023/05/15 03:31:18;;;;;;;13.40;8.98;;;;;;;20.45;46.89;101398.56;5012171;28;20041;-72
2023/05/15 03:33:45;;;;;;;11.40;8.77;;;;;;;20.44;46.82;101396.84;5008388;28;20049;-74
2023/05/15 03:36:11;;;;;;;11.68;8.48;;;;;;;20.45;46.80;101401.19;5016807;28;20033;-73
2023/05/15 03:38:36;;;;;;;10.68;8.80;;;;;;;20.44;46.65;101397.72;5019408;28;20099;-69
2023/05/15 03:41:02;;;;;;;12.52;8.95;;;;;;;20.39;46.65;101381.34;5006024;28;20029;-71
2023/05/15 03:43:27;;;;;;;13.48;8.77;;;;;;;20.44;46.79;101387.13;5007397;28;20068;-73
2023/05/15 03:45:52;;;;;;;12.45;8.93;;;;;;;20.40;46.65;101384.84;5013123;28;20394;-73
2023/05/15 03:48:18;;;;;;;11.93;9.60;;;;;;;20.40;47.01;101385.69;5014875;28;20091;-70
2023/05/15 03:50:43;;;;;;;10.37;8.73;;;;;;;20.41;46.61;101382.09;5008324;28;20473;-71
2023/05/15 03:53:09;;;;;;;11.35;9.13;;;;;;;20.38;46.55;101378.84;5007483;28;20256;-73
2023/05/15 03:55:34;;;;;;;12.85;9.05;;;;;;;20.41;46.50;101387.38;5006028;28;20061;-70
2023/05/15 03:57:59;;;;;;;10.57;8.70;;;;;;;20.39;46.40;101384.00;5007805;28;20042;-72
2023/05/15 04:00:25;;;;;;;11.95;9.20;;;;;;;20.38;46.52;101386.81;5006069;28;20104;-69
2023/05/15 04:02:50;;;;;;;10.90;8.75;;;;;;;20.38;46.41;101381.50;5012851;28;20034;-71
2023/05/15 04:05:16;;;;;;;12.40;9.37;;;;;;;20.38;46.55;101378.84;5017340;28;20367;-72
2023/05/15 04:07:41;;;;;;;10.85;9.23;;;;;;;20.38;46.44;101386.81;5029658;28;20276;-71
2023/05/15 04:10:07;;;;;;;11.93;9.48;;;;;;;20.39;46.47;101383.16;5023021;28;20048;-70
2023/05/15 04:12:34;;;;;;;12.23;10.05;;;;;;;20.38;46.42;101384.16;5019267;28;20028;-70
2023/05/15 04:15:20;;;;;;;11.20;9.45;;;;;;;20.37;46.44;101391.22;5014844;28;20057;-73
2023/05/15 04:17:47;;;;;;;12.82;10.38;;;;;;;20.38;46.31;101384.16;5007540;28;20030;-70
2023/05/15 04:20:14;;;;;;;11.93;9.63;;;;;;;20.36;46.26;101381.63;5009864;28;20533;-72
2023/05/15 04:22:40;;;;;;;12.07;10.20;;;;;;;20.36;46.39;101388.72;5012795;28;20041;-71
2023/05/15 04:25:06;;;;;;;14.10;9.60;;;;;;;20.34;46.33;101386.19;5016217;28;20071;-71
2023/05/15 04:27:32;;;;;;;13.93;10.07;;;;;;;20.35;46.32;101390.53;5015446;28;20442;-74
2023/05/15 04:29:57;;;;;;;12.15;9.95;;;;;;;20.34;46.24;101393.31;5012251;28;20074;-70
2023/05/15 04:32:22;;;;;;;12.45;9.50;;;;;;;20.32;46.26;101389.94;5011576;28;20401;-73
2023/05/15 04:34:48;;;;;;;13.00;9.77;;;;;;;20.33;46.40;101400.41;5021202;28;20049;-72
2023/05/15 04:37:14;;;;;;;12.07;10.10;;;;;;;20.34;46.17;101395.94;5010081;28;20270;-70
2023/05/15 04:39:39;;;;;;;12.75;10.18;;;;;;;20.33;46.10;101399.56;5004945;28;20318;-72
2023/05/15 04:42:04;;;;;;;12.80;9.85;;;;;;;20.34;46.26;101406.53;5012842;28;20092;-71
2023/05/15 04:44:30;;;;;;;11.68;9.50;;;;;;;20.33;46.20;101410.13;5017650;28;20354;-70
2023/05/15 04:46:56;;;;;;;14.35;10.82;;;;;;;20.34;46.46;101419.78;5014032;28;20478;-71
2023/05/15 04:49:21;;;;;;;12.60;10.15;;;;;;;20.32;46.33;101413.78;5020726;28;20039;-73
2023/05/15 04:51:46;;;;;;;12.57;9.80;;;;;;;20.33;46.12;101420.72;5015171;28;20038;-70
2023/05/15 04:54:12;;;;;;;12.25;10.20;;;;;;;20.32;46.26;101424.34;5014077;28;20267;-71
2023/05/15 04:56:37;;;;;;;14.85;11.55;;;;;;;20.31;46.21;101418.19;5009287;28;20041;-73
2023/05/15 04:59:02;;;;;;;12.27;9.82;;;;;;;20.30;46.32;101420.00;5004693;28;20034;-71
2023/05/15 05:01:28;;;;;;;11.45;10.00;;;;;;;20.30;46.35;101417.38;5013128;28;20040;-71
2023/05/15 05:03:53;;;;;;;14.23;11.02;;;;;;;20.28;46.47;101416.66;5015787;28;20493;-71
2023/05/15 05:06:18;;;;;;;14.57;10.93;;;;;;;20.30;46.28;101403.31;5013403;28;20042;-72
2023/05/15 05:08:43;;;;;;;14.75;11.02;;;;;;;20.29;46.27;101409.56;5015442;28;20336;-71
2023/05/15 05:11:09;;;;;;;13.70;10.55;;;;;;;20.27;46.24;101419.44;5010002;28;20071;-74
2023/05/15 05:13:34;;;;;;;13.10;10.05;;;;;;;20.28;46.37;101411.38;5013788;28;20240;-71
2023/05/15 05:16:00;;;;;;;13.43;10.75;;;;;;;20.29;46.31;101417.50;5018076;28;20382;-68
2023/05/15 05:18:25;;;;;;;14.60;10.90;;;;;;;20.29;46.57;101428.09;5013693;28;20040;-69
2023/05/15 05:20:58;;;;;;;14.23;10.85;;;;;;;20.27;46.54;101428.22;5020636;28;20529;-71
2023/05/15 05:23:23;;;;;;;13.13;11.00;;;;;;;20.29;46.42;101423.63;5012574;28;20474;-69
2023/05/15 05:25:48;;;;;;;13.77;10.93;;;;;;;20.28;46.29;101431.69;5017730;28;20045;-72
2023/05/15 05:28:14;;;;;;;13.45;11.30;;;;;;;20.29;46.33;101436.03;5010725;28;20309;-69
2023/05/15 05:30:39;;;;;;;15.18;11.88;;;;;;;20.27;46.35;101437.97;5009266;28;20458;-70
2023/05/15 05:33:05;;;;;;;13.75;11.27;;;;;;;20.28;46.52;101444.91;5015372;28;20092;-71
2023/05/15 05:35:30;;;;;;;13.50;10.55;;;;;;;20.25;46.72;101440.72;5009996;28;20449;-69
2023/05/15 05:37:55;;;;;;;13.18;10.48;;;;;;;20.21;46.59;101439.28;5016305;28;20478;-68
2023/05/15 05:40:20;;;;;;;10.93;9.10;;;;;;;20.24;46.73;101441.69;5010839;28;20120;-70
2023/05/15 05:42:46;;;;;;;13.07;10.27;;;;;;;20.23;47.13;101445.28;5018809;28;20325;-68
2023/05/15 05:45:11;;;;;;;13.87;9.40;;;;;;;20.22;46.70;101446.28;5021251;28;20270;-68
2023/05/15 05:47:36;;;;;;;12.20;9.68;;;;;;;20.24;46.75;101454.09;5019536;28;20674;-69
2023/05/15 05:50:02;;;;;;;12.30;9.75;;;;;;;20.26;46.78;101455.63;5005936;28;20061;-68
2023/05/15 05:52:28;;;;;;;12.27;9.30;;;;;;;20.26;46.72;101449.50;5007926;28;20030;-69
2023/05/15 05:54:53;;;;;;;13.38;9.43;;;;;;;20.27;46.89;101453.84;5012616;28;20041;-69
2023/05/15 05:57:18;;;;;;;10.88;8.57;;;;;;;20.27;46.81;101451.19;5009881;28;20475;-71
2023/05/15 05:59:44;;;;;;;12.30;8.63;;;;;;;20.27;46.91;101449.38;5011115;28;20120;-73
2023/05/15 06:02:10;;;;;;;12.38;9.63;;;;;;;20.26;46.80;101452.16;5005159;28;20390;-72
2023/05/15 06:04:35;;;;;;;13.45;9.10;;;;;;;20.28;46.80;101451.06;5006150;28;20028;-72
2023/05/15 06:07:01;;;;;;;13.57;9.02;;;;;;;20.29;46.76;101452.72;5014228;28;20053;-71
2023/05/15 06:09:26;;;;;;;11.18;8.85;;;;;;;20.29;46.71;101452.72;5018100;28;20034;-71
2023/05/15 06:11:51;;;;;;;11.13;8.75;;;;;;;20.28;46.81;101450.22;5013466;28;20057;-71
2023/05/15 06:14:17;;;;;;;11.60;8.48;;;;;;;20.29;46.86;101447.44;5014035;28;20061;-71
2023/05/15 06:16:42;;;;;;;11.27;8.50;;;;;;;20.27;46.69;101446.72;5020829;28;21171;-72
2023/05/15 06:19:08;;;;;;;10.48;7.63;;;;;;;20.27;46.88;101446.72;5003533;28;20271;-73
2023/05/15 06:21:33;;;;;;;11.85;8.60;;;;;;;20.28;46.95;101450.22;5015765;28;20042;-71
2023/05/15 06:23:58;;;;;;;11.20;9.02;;;;;;;20.26;46.83;101452.97;5005184;28;20470;-71
2023/05/15 06:26:24;;;;;;;9.67;7.80;;;;;;;20.27;46.48;101459.97;5015487;28;20029;-71
2023/05/15 06:28:50;;;;;;;10.65;7.68;;;;;;;20.27;46.72;101457.31;5021009;28;20849;-74
2023/05/15 06:31:16;;;;;;;11.70;8.10;;;;;;;20.23;46.56;101449.75;5006551;28;20118;-74
2023/05/15 06:33:41;;;;;;;9.27;7.68;;;;;;;20.27;46.59;101459.13;5011419;28;20080;-73
2023/05/15 06:36:09;;;;;;;9.20;7.40;;;;;;;20.27;46.54;101462.63;5015924;28;20025;-71
2023/05/15 06:38:35;;;;;;;9.93;7.72;;;;;;;20.25;46.55;101453.09;5009001;28;20037;-73
2023/05/15 06:41:00;;;;;;;10.25;7.18;;;;;;;20.29;46.53;101454.56;5009022;28;20037;-73
2023/05/15 06:43:26;;;;;;;8.68;7.22;;;;;;;20.26;46.56;101447.69;5013875;28;20472;-75
2023/05/15 06:45:51;;;;;;;8.55;7.22;;;;;;;20.28;46.50;101450.22;5008658;28;20029;-70
2023/05/15 06:48:16;;;;;;;8.73;7.07;;;;;;;20.25;46.60;101445.16;5017070;28;20025;-73
2023/05/15 06:50:41;;;;;;;9.32;7.40;;;;;;;20.27;46.48;101443.25;5016680;28;20274;-70
2023/05/15 06:53:07;;;;;;;10.67;7.13;;;;;;;20.27;46.65;101443.25;5019929;28;20087;-73
2023/05/15 06:55:33;;;;;;;9.68;7.28;;;;;;;20.29;46.80;101452.72;5006434;28;20266;-72
2023/05/15 06:57:58;;;;;;;8.55;6.93;;;;;;;20.29;46.56;101446.59;5020321;28;20237;-72
2023/05/15 07:00:24;;;;;;;11.50;7.00;;;;;;;20.29;46.66;101454.56;5018432;28;20060;-73
2023/05/15 07:02:49;;;;;;;9.93;7.55;;;;;;;20.26;46.77;101445.03;5012926;28;20037;-71
2023/05/15 07:05:14;;;;;;;10.75;7.60;;;;;;;20.27;46.96;101449.38;5010432;28;20069;-72
2023/05/15 07:07:40;;;;;;;10.23;7.22;;;;;;;20.29;47.38;101447.44;5022146;28;20033;-71
2023/05/15 07:10:06;;;;;;;10.80;7.10;;;;;;;20.27;47.23;101443.25;5011721;28;20769;-72
2023/05/15 07:12:33;;;;;;;9.48;7.13;;;;;;;20.25;47.21;101439.88;5016989;28;20485;-73
2023/05/15 07:14:58;;;;;;;9.85;8.07;;;;;;;20.29;47.62;101446.59;5009690;28;20045;-75
2023/05/15 07:17:23;;;;;;;9.93;7.10;;;;;;;20.29;47.58;101446.59;5007516;28;20465;-71
2023/05/15 07:19:48;;;;;;;11.13;7.00;;;;;;;20.27;47.52;101443.25;5013197;28;20053;-72
2023/05/15 07:22:14;;;;;;;9.90;7.97;;;;;;;20.25;47.43;101440.72;5010070;28;20029;-72
2023/05/15 07:24:39;;;;;;;11.57;7.33;;;;;;;20.29;47.74;101447.44;5012680;28;20083;-72
2023/05/15 07:27:04;;;;;;;10.13;7.10;;;;;;;20.29;47.65;101443.97;5015649;28;20321;-71
2023/05/15 07:29:29;;;;;;;8.50;6.95;;;;;;;20.25;47.59;101440.72;5015933;28;20042;-70
2023/05/15 07:31:55;;;;;;;9.93;6.80;;;;;;;20.25;48.08;101431.94;5013347;28;20030;-72
2023/05/15 07:34:20;;;;;;;10.35;6.57;;;;;;;20.24;48.31;101432.91;5012375;28;20684;-71
2023/05/15 07:36:45;;;;;;;8.15;6.78;;;;;;;20.23;48.50;101434.69;5019687;28;20060;-74
2023/05/15 07:39:11;;;;;;;12.20;7.28;;;;;;;20.27;48.35;101432.66;5014355;28;20095;-76
2023/05/15 07:41:36;;;;;;;8.85;7.25;;;;;;;20.33;48.52;101434.81;5010996;28;20041;-76
2023/05/15 07:44:01;;;;;;;10.07;7.60;;;;;;;20.34;48.37;101435.66;5015127;28;20041;-74
2023/05/15 07:46:27;;;;;;;9.10;7.47;;;;;;;20.25;48.76;101424.84;5016856;28;20120;-73
2023/05/15 07:48:52;;;;;;;10.60;8.10;;;;;;;20.30;48.66;101435.06;5014996;28;20711;-74
2023/05/15 07:51:17;;;;;;;10.55;8.52;;;;;;;20.33;48.25;101431.31;5016880;28;20322;-72
2023/05/15 07:53:42;;;;;;;9.55;8.35;;;;;;;20.34;48.40;101423.25;5012865;28;20513;-72
2023/05/15 07:56:08;;;;;;;9.20;7.72;;;;;;;20.43;48.57;101426.97;5014001;28;20049;-72
2023/05/15 07:58:35;;;;;;;13.35;8.43;;;;;;;20.41;48.69;101419.16;5013123;28;20041;-71
2023/05/15 08:01:01;;;;;;;10.45;8.00;;;;;;;20.44;48.61;101421.53;5008935;28;20029;-70
2023/05/15 08:03:26;;;;;;;14.73;8.23;;;;;;;20.40;48.68;101413.97;5010408;28;20128;-70
2023/05/15 08:05:51;;;;;;;10.30;8.57;;;;;;;20.35;48.44;101417.00;5009359;28;20037;-68
2023/05/15 08:08:17;;;;;;;9.57;7.90;;;;;;;20.34;48.81;101414.47;5009879;28;20290;-70
2023/05/15 08:10:42;;;;;;;12.03;9.27;;;;;;;20.35;48.91;101426.75;5010164;28;20363;-68
2023/05/15 08:13:07;;;;;;;10.45;8.85;;;;;;;20.35;48.94;101419.66;5006813;28;20263;-76
2023/05/15 08:15:32;;;;;;;13.75;11.07;;;;;;;20.40;48.47;101414.81;5011738;28;20051;-73
2023/05/15 08:17:58;;;;;;;10.80;8.80;;;;;;;20.43;48.37;101421.66;5007686;28;20025;-69
2023/05/15 08:20:23;;;;;;;14.50;9.30;;;;;;;20.45;48.37;101419.72;5006254;28;20390;-72
2023/05/15 08:22:48;;;;;;;14.70;9.40;;;;;;;20.53;48.26;101425.22;5010323;28;20263;-70
2023/05/15 08:25:13;;;;;;;14.13;11.23;;;;;;;20.59;47.93;101424.72;5010381;28;20033;-70
2023/05/15 08:27:39;;;;;;;11.77;9.55;;;;;;;20.67;47.86;101426.78;5010314;28;20552;-70
2023/05/15 08:30:05;;;;;;;12.07;10.00;;;;;;;20.70;47.71;101431.00;5014153;28;20032;-71
2023/05/15 08:32:30;;;;;;;12.90;9.43;;;;;;;20.69;47.60;101422.19;5007195;28;20044;-71
2023/05/15 08:34:55;;;;;;;15.63;10.33;;;;;;;20.63;47.61;101423.50;5009716;28;20553;-71
2023/05/15 08:37:20;;;;;;;14.82;11.73;;;;;;;20.65;47.14;101421.59;5006632;28;20299;-70
2023/05/15 08:39:46;;;;;;;12.57;10.10;;;;;;;20.59;47.58;101423.91;5001946;28;20589;-70
2023/05/15 08:42:23;;;;;;;13.27;10.40;;;;;;;20.50;48.01;101419.34;5006037;28;20295;-70
2023/05/15 08:44:49;;;;;;;14.32;10.60;;;;;;;20.49;48.33;101421.16;5015301;28;20037;-71
2023/05/15 08:47:15;;;;;;;16.17;10.57;;;;;;;20.45;48.34;101423.22;5013792;28;20068;-69
2023/05/15 08:50:03;;;;;;;12.48;10.13;;;;;;;20.41;48.18;101413.00;5014813;28;20029;-73
2023/05/15 08:52:29;;;;;;;12.40;10.18;;;;;;;20.43;48.29;101421.66;5010671;28;20462;-70
2023/05/15 08:54:55;;;;;;;12.93;11.13;;;;;;;20.43;48.21;101427.78;5002805;28;20036;-76
2023/05/15 08:57:20;;;;;;;15.00;11.35;;;;;;;20.42;48.25;101419.97;5004058;28;20034;-71
2023/05/15 08:59:45;;;;;;;16.55;12.50;;;;;;;20.42;48.11;101410.22;5012876;28;20580;-70
2023/05/15 09:02:11;;;;;;;13.07;10.35;;;;;;;20.52;48.12;101412.97;5004948;28;20474;-75
2023/05/15 09:04:36;;;;;;;13.85;11.13;;;;;;;20.47;48.32;101418.66;5004601;28;20497;-71
2023/05/15 09:07:03;;;;;;;11.55;10.35;;;;;;;20.52;48.15;101420.91;5001065;28;20034;-73
2023/05/15 09:09:30;;;;;;;14.63;10.48;;;;;;;20.54;48.21;101412.84;5005119;28;20038;-71
2023/05/15 09:11:58;;;;;;;13.00;9.95;;;;;;;20.57;48.20;101417.84;5007259;28;20124;-70
2023/05/15 09:14:23;;;;;;;12.50;10.00;;;;;;;20.57;48.26;101415.22;5006153;28;20517;-73
2023/05/15 09:16:49;;;;;;;13.48;11.50;;;;;;;20.60;48.39;101423.75;5005566;28;20041;-74
2023/05/15 09:19:18;;;;;;;14.32;10.90;;;;;;;20.62;48.22;101416.53;5011177;28;20038;-75
2023/05/15 09:21:43;;;;;;;12.32;10.00;;;;;;;20.71;48.07;101424.69;5015265;28;20033;-75
2023/05/15 09:24:27;;;;;;;15.35;10.20;;;;;;;20.62;48.17;101407.75;5009235;28;20541;-71
2023/05/15 09:27:06;;;;;;;15.02;10.13;;;;;;;20.67;48.12;101418.81;5011465;28;20041;-74
2023/05/15 09:29:33;;;;;;;13.73;10.77;;;;;;;20.65;47.90;101411.00;5013629;28;20525;-72
2023/05/15 09:32:07;;;;;;;12.95;9.93;;;;;;;20.64;48.23;101416.44;5008363;28;20087;-72
2023/05/15 09:34:37;;;;;;;12.75;10.98;;;;;;;20.63;48.11;101415.56;5015415;28;20502;-73
2023/05/15 09:37:05;;;;;;;14.80;11.43;;;;;;;20.68;48.08;101417.00;5007397;28;20088;-70
2023/05/15 09:39:31;;;;;;;12.55;10.00;;;;;;;20.70;48.05;101421.22;5006293;28;20053;-72
2023/05/15 09:42:07;;;;;;;11.77;9.95;;;;;;;20.63;48.23;101412.91;5004598;28;20030;-71
2023/05/15 09:44:33;;;;;;;12.98;9.93;;;;;;;20.67;48.34;101421.47;5017091;28;20136;-69
2023/05/15 09:46:58;;;;;;;15.23;10.88;;;;;;;20.68;48.27;101417.00;5017235;28;20519;-68
2023/05/15 09:49:24;;;;;;;15.55;10.82;;;;;;;20.67;48.06;101418.81;5014003;28;20033;-77
2023/05/15 09:51:49;;;;;;;18.05;10.32;;;;;;;20.71;48.23;101417.63;5002129;28;20092;-77
2023/05/15 09:54:17;;;;;;;14.25;10.68;;;;;;;20.69;48.23;101416.88;5017137;28;20069;-74
2023/05/15 09:56:46;;;;;;;14.13;10.07;;;;;;;20.70;48.28;101418.56;5009978;28;20088;-70
2023/05/15 09:59:17;;;;;;;13.48;9.85;;;;;;;20.75;48.31;101426.13;5007846;28;20044;-71
2023/05/15 10:01:44;;;;;;;11.85;9.45;;;;;;;20.74;48.21;101424.44;5014154;28;20040;-74
2023/05/15 10:04:11;;;;;;;13.88;9.52;;;;;;;20.74;48.30;101425.28;5022128;28;20029;-71
2023/05/15 10:06:46;;;;;;;12.55;9.80;;;;;;;20.69;48.96;101424.00;5006855;28;20030;-76
2023/05/15 10:09:13;;;;;;;11.25;10.07;;;;;;;20.69;48.79;101424.00;5017629;28;20029;-73
2023/05/15 10:11:43;;;;;;;13.05;10.32;;;;;;;20.66;48.79;101417.13;5013923;28;20041;-71
2023/05/15 10:14:11;;;;;;;12.15;10.38;;;;;;;20.69;48.70;101429.28;5012116;28;20054;-71
2023/05/15 10:16:37;;;;;;;12.63;9.27;;;;;;;20.71;48.66;101422.91;5012723;28;20121;-77
2023/05/15 10:19:05;;;;;;;12.77;9.73;;;;;;;20.69;48.92;101431.94;5018689;28;20056;-72
2023/05/15 10:21:32;;;;;;;11.77;10.15;;;;;;;20.69;48.72;101432.78;5004223;28;20037;-72
2023/05/15 10:23:59;;;;;;;13.40;10.38;;;;;;;20.68;48.79;101433.75;5011468;28;20037;-71
2023/05/15 10:26:41;;;;;;;11.85;9.60;;;;;;;20.64;48.82;101430.50;5021103;28;20037;-72
2023/05/15 10:29:11;;;;;;;12.85;9.80;;;;;;;20.68;48.90;101430.25;5016174;28;20039;-71
2023/05/15 10:31:36;;;;;;;11.30;9.77;;;;;;;20.67;48.87;101424.13;5008638;28;20030;-72
2023/05/15 10:34:03;;;;;;;11.52;9.60;;;;;;;20.70;49.06;101431.81;5004075;28;20056;-71
2023/05/15 10:36:30;;;;;;;14.25;9.48;;;;;;;20.71;48.98;101435.28;5022352;28;20041;-70
2023/05/15 10:38:56;;;;;;;10.40;8.80;;;;;;;20.71;48.95;101430.00;5010854;28;20029;-72
2023/05/15 10:41:23;;;;;;;10.38;8.85;;;;;;;20.69;48.76;101430.13;5021424;28;20124;-72
2023/05/15 10:43:52;;;;;;;11.45;9.50;;;;;;;20.68;49.01;101436.41;5021118;28;20029;-74
2023/05/15 10:46:18;;;;;;;11.25;8.90;;;;;;;20.69;48.81;101427.47;5016162;28;20057;-69
2023/05/15 10:48:43;;;;;;;12.73;10.02;;;;;;;20.77;48.23;101435.63;5015644;28;20055;-69
2023/05/15 10:51:23;;;;;;;11.43;8.95;;;;;;;20.70;48.92;101431.00;5005506;28;20045;-69
2023/05/15 10:53:50;;;;;;;12.60;9.27;;;;;;;20.70;48.68;101433.63;5011172;28;20855;-70
2023/05/15 10:56:15;;;;;;;14.70;9.40;;;;;;;20.70;48.80;101436.28;5003304;28;20092;-74
2023/05/15 10:58:48;;;;;;;10.57;8.70;;;;;;;20.67;48.82;101437.38;5004930;28;20065;-70
2023/05/15 11:01:30;;;;;;;11.35;9.20;;;;;;;20.68;49.13;101436.41;5007507;28;20085;-73
2023/05/15 11:04:12;;;;;;;12.60;8.95;;;;;;;20.70;48.91;101439.75;5017736;28;20041;-73
2023/05/15 11:06:42;;;;;;;12.20;8.52;;;;;;;20.64;48.75;101427.03;5008609;28;20030;-71
2023/05/15 11:09:26;;;;;;;12.32;9.05;;;;;;;20.72;48.96;101437.00;5016700;28;20040;-69
2023/05/15 11:11:51;;;;;;;14.27;9.07;;;;;;;20.72;48.85;101437.00;5016994;28;20095;-72
2023/05/15 11:14:20;;;;;;;12.88;8.77;;;;;;;20.69;48.56;101437.25;5013597;28;20430;-71
2023/05/15 11:16:52;;;;;;;11.60;8.98;;;;;;;20.72;48.64;101443.13;5006707;28;20034;-69